Time;durP1;ratioP1;P1;durP2;ratioP2;P2;SDS_P1;SDS_P2;PMS_P1;PMS_P2;Temp;Humidity;BMP_temperature;BMP_pressure;BME280_temperature;BME280_humidity;BME280_pressure;Samples;Min_cycle;Max_cycle;Signal;HPM_P1;HPM_P2
2023/03/29 00:02:10;;;;;;;0.82;0.82;;;;;;;8.09;34.24;100375.16;4420315;32;33982;-59
2023/03/29 00:04:38;;;;;;;1.17;1.00;;;;;;;7.91;34.64;100363.66;4420775;32;33847;-59
2023/03/29 00:07:07;;;;;;;1.27;0.93;;;;;;;8.09;34.31;100363.59;4414438;32;33879;-59
2023/03/29 00:09:34;;;;;;;0.88;0.85;;;;;;;8.07;34.61;100373.50;4418695;32;35070;-59
2023/03/29 00:12:02;;;;;;;2.47;2.25;;;;;;;7.93;34.65;100374.25;4420114;32;34339;-59
2023/03/29 00:14:30;;;;;;;1.12;1.00;;;;;;;7.87;34.66;100361.25;4421385;32;33819;-62
2023/03/29 00:16:57;;;;;;;0.70;0.68;;;;;;;8.01;34.59;100360.50;4420596;32;34480;-59
2023/03/29 00:19:25;;;;;;;0.70;0.70;;;;;;;8.08;34.61;100356.56;4421207;32;33839;-59
2023/03/29 00:21:53;;;;;;;17.55;1.92;;;;;;;8.06;34.01;100359.31;4420776;32;33989;-59
2023/03/29 00:24:22;;;;;;;0.80;0.80;;;;;;;8.15;34.11;100364.16;4420199;32;34057;-61
2023/03/29 00:26:50;;;;;;;0.98;0.85;;;;;;;8.13;34.45;100363.38;4418407;32;33408;-61
2023/03/29 00:29:17;;;;;;;0.88;0.88;;;;;;;8.07;34.66;100360.19;4421700;32;33510;-61
2023/03/29 00:31:51;;;;;;;1.27;1.17;;;;;;;7.99;34.35;100354.38;4419364;32;33926;-61
2023/03/29 00:34:19;;;;;;;1.92;1.77;;;;;;;7.87;34.35;100359.44;4421079;32;33881;-61
2023/03/29 00:36:51;;;;;;;0.93;0.93;;;;;;;7.72;34.65;100359.41;4414893;32;33496;-62
2023/03/29 00:39:20;;;;;;;0.75;0.75;;;;;;;7.57;34.39;100351.25;4420926;32;34023;-62
2023/03/29 00:41:48;;;;;;;1.10;0.98;;;;;;;7.62;34.31;100349.22;4419346;32;34977;-66
2023/03/29 00:44:53;;;;;;;2.75;1.20;;;;;;;7.53;34.54;100356.84;4422395;32;34912;-62
2023/03/29 00:47:41;;;;;;;1.40;1.30;;;;;;;7.58;34.84;100357.47;4421078;32;33267;-60
2023/03/29 00:50:15;;;;;;;2.45;1.37;;;;;;;7.38;34.99;100343.41;4407589;32;33644;-59
2023/03/29 00:52:46;;;;;;;0.85;0.85;;;;;;;7.64;34.42;100355.34;4419744;32;34176;-60
2023/03/29 00:55:17;;;;;;;2.37;1.95;;;;;;;7.73;34.13;100355.78;4406876;32;34284;-61
2023/03/29 00:57:45;;;;;;;1.95;1.23;;;;;;;7.72;34.17;100352.28;4407426;32;33272;-59
2023/03/29 01:00:17;;;;;;;2.65;1.83;;;;;;;7.85;34.39;100348.00;4405626;32;33559;-62
2023/03/29 01:02:49;;;;;;;0.60;0.60;;;;;;;7.89;34.00;100338.03;4419647;32;33798;-63
2023/03/29 01:05:21;;;;;;;1.02;0.95;;;;;;;7.80;34.22;100339.41;4407089;32;34211;-59
2023/03/29 01:07:58;;;;;;;1.83;1.60;;;;;;;7.88;34.42;100337.19;4408101;32;34382;-59
2023/03/29 01:10:36;;;;;;;5.87;2.90;;;;;;;7.76;34.75;100339.63;4405194;32;34864;-59
2023/03/29 01:13:08;;;;;;;2.25;1.60;;;;;;;7.85;34.42;100331.16;4415860;32;33747;-62
2023/03/29 01:15:37;;;;;;;1.42;1.33;;;;;;;7.70;34.74;100331.06;4406317;32;35010;-62
2023/03/29 01:18:05;;;;;;;2.25;1.25;;;;;;;7.68;34.74;100318.75;4420565;32;33714;-60
2023/03/29 01:21:22;;;;;;;1.85;1.65;;;;;;;7.63;34.66;100318.97;4419823;32;33709;-60
2023/03/29 01:24:23;;;;;;;2.00;1.58;;;;;;;7.70;34.29;100314.19;4370831;32;33600;-59
2023/03/29 01:27:13;;;;;;;4.72;2.25;;;;;;;7.59;34.43;100319.22;4373436;32;35499;-60
2023/03/29 01:29:52;;;;;;;1.85;0.93;;;;;;;7.63;34.08;100320.78;4421757;32;33289;-59
2023/03/29 01:32:23;;;;;;;1.20;1.15;;;;;;;7.64;34.15;100325.16;4404979;32;32421;-60
2023/03/29 01:34:58;;;;;;;2.92;2.60;;;;;;;7.66;34.19;100316.16;4417415;32;33894;-59
2023/03/29 01:37:31;;;;;;;0.60;0.60;;;;;;;7.54;34.26;100316.78;4419229;32;33966;-60
2023/03/29 01:39:59;;;;;;;1.10;0.90;;;;;;;7.79;33.88;100316.34;4406909;32;34941;-59
2023/03/29 01:42:39;;;;;;;0.73;0.73;;;;;;;7.73;33.73;100321.16;4419151;32;32322;-59
2023/03/29 01:45:54;;;;;;;1.75;1.20;;;;;;;7.60;33.89;100316.47;4419527;32;33636;-59
2023/03/29 01:48:28;;;;;;;1.98;1.27;;;;;;;6.83;36.27;100318.72;4361501;32;33840;-59
2023/03/29 01:51:04;;;;;;;2.97;2.47;;;;;;;6.97;35.25;100310.91;4418860;32;33580;-59
2023/03/29 01:53:39;;;;;;;1.15;1.05;;;;;;;6.89;35.93;100311.28;4421296;32;35340;-61
2023/03/29 01:56:11;;;;;;;0.80;0.73;;;;;;;6.92;35.42;100307.63;4406478;32;33919;-59
2023/03/29 01:58:43;;;;;;;1.58;1.48;;;;;;;6.86;35.67;100310.59;4406345;32;35324;-59
2023/03/29 02:01:16;;;;;;;1.12;1.02;;;;;;;6.89;35.30;100313.94;4406467;32;33519;-59
2023/03/29 02:03:48;;;;;;;2.78;2.03;;;;;;;7.00;34.82;100310.75;4421331;32;33459;-59
2023/03/29 02:06:19;;;;;;;1.75;1.30;;;;;;;7.06;36.34;100315.75;4406161;32;33612;-62
2023/03/29 02:08:47;;;;;;;0.60;0.60;;;;;;;7.12;34.63;100312.78;4420820;32;34083;-62
2023/03/29 02:11:15;;;;;;;0.70;0.70;;;;;;;6.86;35.21;100315.91;4420150;32;33398;-62
2023/03/29 02:13:42;;;;;;;1.37;1.17;;;;;;;6.76;35.46;100300.41;4420194;32;32824;-60
2023/03/29 02:16:11;;;;;;;1.60;1.50;;;;;;;6.84;35.27;100304.47;4420132;32;34095;-61
2023/03/29 02:18:45;;;;;;;1.48;1.02;;;;;;;6.93;35.06;100315.53;4421129;32;34103;-61
2023/03/29 02:21:23;;;;;;;0.98;0.98;;;;;;;6.91;35.00;100314.75;4406086;32;33481;-60
2023/03/29 02:23:53;;;;;;;0.77;0.77;;;;;;;6.92;34.85;100316.47;4406499;32;32804;-60
2023/03/29 02:26:22;;;;;;;1.60;1.00;;;;;;;6.87;35.12;100313.19;4398346;32;33857;-59
2023/03/29 02:28:51;;;;;;;2.92;1.73;;;;;;;7.11;34.51;100311.06;4407179;32;35129;-59
2023/03/29 02:31:32;;;;;;;3.22;2.37;;;;;;;7.14;34.39;100307.38;4420698;32;32145;-59
2023/03/29 02:34:42;;;;;;;1.27;1.17;;;;;;;7.17;34.37;100308.09;4406027;32;34802;-59
2023/03/29 02:37:14;;;;;;;3.00;2.62;;;;;;;7.02;34.87;100316.00;4371645;32;33326;-59
2023/03/29 02:39:42;;;;;;;3.20;2.60;;;;;;;6.97;34.92;100308.25;4348804;32;35062;-64
2023/03/29 02:42:10;;;;;;;3.37;2.35;;;;;;;6.87;35.09;100310.53;4379886;32;33371;-61
2023/03/29 02:44:40;;;;;;;1.50;1.40;;;;;;;6.85;34.88;100314.19;4418718;32;33659;-59
2023/03/29 02:47:24;;;;;;;2.58;2.37;;;;;;;6.74;35.04;100326.25;4420948;32;33900;-59
2023/03/29 02:49:51;;;;;;;1.65;1.30;;;;;;;6.59;35.18;100324.34;4405964;32;35183;-59
2023/03/29 02:52:26;;;;;;;2.03;1.85;;;;;;;6.27;35.83;100320.56;4419566;32;33391;-60
2023/03/29 02:54:54;;;;;;;2.37;2.15;;;;;;;5.97;36.55;100330.84;4417380;32;33710;-62
2023/03/29 02:57:25;;;;;;;2.08;1.75;;;;;;;6.06;36.38;100327.75;4405912;32;33808;-62
2023/03/29 02:59:54;;;;;;;5.28;2.03;;;;;;;6.13;36.22;100330.97;4412154;32;33026;-60
2023/03/29 03:02:26;;;;;;;0.70;0.70;;;;;;;6.20;36.72;100330.66;4417697;32;32258;-64
2023/03/29 03:04:54;;;;;;;1.40;1.30;;;;;;;6.15;36.42;100337.97;4420288;32;34024;-59
2023/03/29 03:07:23;;;;;;;1.75;1.52;;;;;;;6.24;36.34;100332.22;4418882;32;34646;-60
2023/03/29 03:09:51;;;;;;;1.40;0.95;;;;;;;6.24;36.16;100336.66;4418844;32;33888;-59
2023/03/29 03:12:19;;;;;;;1.95;0.85;;;;;;;6.39;35.72;100335.94;4421584;32;34568;-62
2023/03/29 03:14:47;;;;;;;1.10;0.98;;;;;;;6.48;35.98;100332.81;4418381;32;34930;-61
2023/03/29 03:17:14;;;;;;;0.73;0.73;;;;;;;6.64;35.80;100338.25;4419869;32;32950;-63
2023/03/29 03:19:42;;;;;;;1.48;1.17;;;;;;;6.83;35.41;100335.53;4418998;32;35202;-59
2023/03/29 03:22:10;;;;;;;0.80;0.80;;;;;;;6.93;36.10;100334.16;4419886;32;33505;-62
2023/03/29 03:24:37;;;;;;;0.77;0.77;;;;;;;6.93;36.92;100336.84;4419044;32;33546;-63
2023/03/29 03:27:07;;;;;;;0.70;0.70;;;;;;;7.33;35.08;100341.91;4416282;32;33875;-59
2023/03/29 03:29:37;;;;;;;14.07;5.07;;;;;;;7.40;35.57;100340.66;4416314;32;34730;-59
2023/03/29 03:32:05;;;;;;;17.52;2.05;;;;;;;7.49;34.84;100339.31;4418120;32;32647;-63
2023/03/29 03:34:35;;;;;;;1.40;1.30;;;;;;;7.58;34.15;100337.03;4417925;32;32223;-60
2023/03/29 03:37:02;;;;;;;2.58;1.95;;;;;;;7.62;33.86;100338.56;4419385;32;35756;-60
2023/03/29 03:39:31;;;;;;;0.80;0.80;;;;;;;7.51;34.14;100338.25;4419756;32;34486;-60
2023/03/29 03:41:59;;;;;;;0.90;0.88;;;;;;;7.31;34.69;100341.13;4420139;32;34480;-60
2023/03/29 03:44:27;;;;;;;4.25;1.95;;;;;;;7.20;34.68;100347.88;4418175;32;33641;-59
2023/03/29 03:46:55;;;;;;;0.88;0.82;;;;;;;7.15;35.04;100343.72;4417698;32;35089;-60
2023/03/29 03:49:23;;;;;;;1.10;1.05;;;;;;;7.16;35.02;100356.97;4419162;32;33715;-60
2023/03/29 03:51:51;;;;;;;1.05;0.95;;;;;;;7.21;34.93;100360.22;4417220;32;33457;-62
2023/03/29 03:54:19;;;;;;;3.30;1.75;;;;;;;7.18;35.02;100356.88;4418362;32;34945;-60
2023/03/29 03:56:47;;;;;;;1.60;1.23;;;;;;;7.25;34.90;100360.94;4417848;32;34041;-62
2023/03/29 03:59:15;;;;;;;0.93;0.93;;;;;;;7.29;34.71;100357.19;4414982;32;35313;-59
2023/03/29 04:01:44;;;;;;;7.68;2.33;;;;;;;7.36;34.85;100352.41;4419921;32;34551;-62
2023/03/29 04:04:13;;;;;;;1.15;1.08;;;;;;;7.44;34.47;100363.50;4419380;32;34709;-59
2023/03/29 04:06:42;;;;;;;1.12;0.93;;;;;;;7.45;34.94;100360.78;4417339;32;34912;-62
2023/03/29 04:09:13;;;;;;;1.62;1.25;;;;;;;7.40;35.31;100349.50;4414754;32;32948;-60
2023/03/29 04:11:41;;;;;;;4.22;2.25;;;;;;;7.54;34.98;100356.75;4422360;32;32495;-60
2023/03/29 04:14:10;;;;;;;1.08;0.98;;;;;;;7.42;36.06;100360.94;4417187;32;33713;-60
2023/03/29 04:16:38;;;;;;;1.20;1.10;;;;;;;7.36;36.02;100355.94;4420718;32;33758;-62
2023/03/29 04:19:07;;;;;;;1.73;1.55;;;;;;;7.72;34.10;100356.75;4419655;32;33968;-62
2023/03/29 04:21:34;;;;;;;0.82;0.80;;;;;;;7.41;35.42;100353.00;4417256;32;32386;-59
2023/03/29 04:24:02;;;;;;;1.37;1.27;;;;;;;7.59;35.61;100354.72;4419282;32;35046;-60
2023/03/29 04:26:30;;;;;;;0.98;0.80;;;;;;;7.34;36.35;100351.63;4422093;32;34257;-64
2023/03/29 04:29:00;;;;;;;0.60;0.60;;;;;;;7.04;37.01;100351.41;4422061;32;35009;-67
2023/03/29 04:31:29;;;;;;;1.70;1.60;;;;;;;7.27;35.74;100351.06;4422534;32;34718;-61
2023/03/29 04:33:58;;;;;;;1.30;1.20;;;;;;;7.16;36.32;100356.97;4419241;32;34624;-59
2023/03/29 04:36:27;;;;;;;2.12;1.23;;;;;;;7.42;35.61;100376.06;4422352;32;33804;-60
2023/03/29 04:38:55;;;;;;;1.90;1.62;;;;;;;7.52;35.19;100366.66;4421498;32;32628;-61
2023/03/29 04:41:24;;;;;;;1.62;1.40;;;;;;;7.75;33.86;100359.25;4420136;32;33448;-60
2023/03/29 04:43:54;;;;;;;0.75;0.75;;;;;;;7.70;35.31;100365.69;4419719;32;32838;-62
2023/03/29 04:46:25;;;;;;;1.37;1.17;;;;;;;7.66;34.81;100376.56;4421306;32;33857;-60
2023/03/29 04:48:54;;;;;;;0.88;0.88;;;;;;;7.60;35.02;100372.41;4421016;32;33857;-62
2023/03/29 04:51:23;;;;;;;1.45;1.23;;;;;;;7.66;34.54;100377.44;4421565;32;32583;-59
2023/03/29 04:53:51;;;;;;;1.10;0.80;;;;;;;7.69;35.03;100376.41;4420791;32;33373;-61
2023/03/29 04:56:18;;;;;;;1.40;1.30;;;;;;;7.82;34.69;100374.81;4407228;32;33936;-61
2023/03/29 04:58:48;;;;;;;1.30;1.02;;;;;;;7.93;34.14;100377.78;4418626;32;33876;-60
2023/03/29 05:01:16;;;;;;;0.80;0.80;;;;;;;7.85;34.19;100371.12;4418288;32;33257;-60
2023/03/29 05:03:44;;;;;;;1.25;1.05;;;;;;;7.64;35.84;100379.34;4420130;32;33816;-60
2023/03/29 05:06:13;;;;;;;1.65;0.93;;;;;;;7.83;35.49;100378.34;4421453;32;34003;-61
2023/03/29 05:08:40;;;;;;;1.65;1.15;;;;;;;8.09;34.63;100371.59;4420585;32;32930;-60
2023/03/29 05:11:09;;;;;;;0.70;0.70;;;;;;;8.05;34.68;100375.38;4420854;32;34249;-62
2023/03/29 05:13:37;;;;;;;0.75;0.75;;;;;;;8.21;34.54;100378.94;4418193;32;34992;-60
2023/03/29 05:16:05;;;;;;;1.27;1.17;;;;;;;8.02;35.81;100375.53;4419629;32;32586;-59
2023/03/29 05:18:33;;;;;;;0.80;0.80;;;;;;;8.17;35.31;100369.37;4421310;32;33987;-60
2023/03/29 05:21:03;;;;;;;1.12;1.02;;;;;;;8.37;35.06;100373.59;4420866;32;34868;-60
2023/03/29 05:23:31;;;;;;;1.60;1.48;;;;;;;8.37;35.02;100373.59;4420628;32;33952;-61
2023/03/29 05:26:00;;;;;;;7.30;4.97;;;;;;;8.37;35.83;100378.94;4418512;32;33680;-61
2023/03/29 05:28:28;;;;;;;7.05;4.50;;;;;;;8.18;35.54;100360.44;4419094;32;34172;-60
2023/03/29 05:31:03;;;;;;;19.42;6.62;;;;;;;8.27;35.46;100359.94;4421447;32;34660;-63
2023/03/29 05:33:33;;;;;;;13.62;5.53;;;;;;;8.52;34.94;100359.44;4420137;32;33270;-64
2023/03/29 05:36:03;;;;;;;8.15;3.30;;;;;;;8.57;34.95;100360.06;4419137;32;35041;-59
2023/03/29 05:38:33;;;;;;;10.90;4.72;;;;;;;8.41;35.76;100364.53;4416239;32;34188;-60
2023/03/29 05:41:02;;;;;;;13.18;3.10;;;;;;;8.65;35.05;100366.78;4410661;32;33807;-60
2023/03/29 05:43:32;;;;;;;11.88;3.75;;;;;;;8.79;34.50;100367.69;4417580;32;33742;-64
2023/03/29 05:46:00;;;;;;;7.60;5.03;;;;;;;8.73;35.09;100367.16;4420607;32;35086;-60
2023/03/29 05:48:28;;;;;;;3.30;2.65;;;;;;;8.54;35.72;100365.56;4420145;32;34663;-59
2023/03/29 05:50:56;;;;;;;6.47;3.53;;;;;;;8.49;35.43;100380.97;4418831;32;33661;-61
2023/03/29 05:53:26;;;;;;;5.20;2.40;;;;;;;8.43;35.77;100375.97;4417019;32;33594;-60
2023/03/29 05:55:54;;;;;;;3.87;3.20;;;;;;;8.59;35.83;100381.31;4420151;32;35251;-61
2023/03/29 05:58:21;;;;;;;3.58;1.77;;;;;;;8.67;35.86;100381.75;4419856;32;34168;-60
2023/03/29 06:00:50;;;;;;;3.80;2.03;;;;;;;8.75;35.46;100379.50;4420150;32;33515;-65
2023/03/29 06:03:22;;;;;;;8.55;3.50;;;;;;;8.71;35.17;100383.28;4420177;32;34811;-60
2023/03/29 06:06:03;;;;;;;2.20;1.90;;;;;;;8.87;35.51;100385.94;4418129;32;32539;-65
2023/03/29 06:08:32;;;;;;;3.60;1.48;;;;;;;9.01;35.04;100382.47;4421190;32;34154;-61
2023/03/29 06:11:03;;;;;;;2.03;1.30;;;;;;;9.06;34.81;100391.94;4420206;32;33731;-62
2023/03/29 06:13:33;;;;;;;4.57;2.05;;;;;;;9.07;34.59;100382.97;4406576;32;33783;-62
2023/03/29 06:16:01;;;;;;;2.95;2.62;;;;;;;8.93;35.08;100392.75;4416805;32;33857;-61
2023/03/29 06:18:28;;;;;;;3.92;2.33;;;;;;;9.08;34.60;100390.06;4413029;32;35437;-63
2023/03/29 06:20:56;;;;;;;5.37;2.97;;;;;;;9.23;34.46;100382.94;4413831;32;34617;-62
2023/03/29 06:23:24;;;;;;;3.35;3.00;;;;;;;9.30;34.10;100392.28;4414034;32;33883;-61
2023/03/29 06:25:52;;;;;;;14.98;4.53;;;;;;;9.46;33.47;100400.25;4419680;32;32754;-61
2023/03/29 06:28:20;;;;;;;18.15;4.28;;;;;;;8.30;35.74;100401.56;4420774;32;35090;-62
2023/03/29 06:30:48;;;;;;;8.73;4.70;;;;;;;9.35;34.10;100397.38;4417637;32;33257;-63
2023/03/29 06:33:17;;;;;;;2.67;2.15;;;;;;;9.44;33.57;100404.84;4413262;32;34830;-62
2023/03/29 06:35:47;;;;;;;6.30;4.35;;;;;;;9.67;33.31;100391.94;4420900;32;33840;-63
2023/03/29 06:38:15;;;;;;;2.05;1.73;;;;;;;9.87;34.12;100396.03;4420908;32;34569;-63
2023/03/29 06:40:44;;;;;;;3.40;2.50;;;;;;;9.97;33.59;100405.22;4415755;32;33190;-61
2023/03/29 06:43:12;;;;;;;4.68;2.83;;;;;;;10.22;31.49;100397.38;4416418;32;33802;-61
2023/03/29 06:45:42;;;;;;;3.22;1.90;;;;;;;10.17;32.00;100399.47;4418979;32;34071;-62
2023/03/29 06:48:11;;;;;;;2.45;1.55;;;;;;;10.30;32.61;100394.25;4421156;32;33357;-62
2023/03/29 06:50:40;;;;;;;2.67;2.03;;;;;;;10.55;32.70;100395.38;4420147;32;32327;-62
2023/03/29 06:53:08;;;;;;;1.85;1.40;;;;;;;10.56;32.00;100394.41;4420604;32;33496;-62
2023/03/29 06:55:35;;;;;;;3.35;2.17;;;;;;;10.52;32.47;100396.41;4418798;32;33863;-61
2023/03/29 06:58:08;;;;;;;2.60;2.15;;;;;;;10.60;31.17;100399.47;4419637;32;33979;-62
2023/03/29 07:00:37;;;;;;;3.65;2.17;;;;;;;10.67;30.83;100399.94;4415798;32;32669;-62
2023/03/29 07:03:08;;;;;;;2.53;1.65;;;;;;;10.78;30.27;100416.16;4407706;32;34347;-62
2023/03/29 07:05:39;;;;;;;1.85;1.40;;;;;;;10.79;31.01;100407.19;4415291;32;34086;-61
2023/03/29 07:10:38;;;;;;;1.58;1.48;;;;;;;10.69;31.57;100414.09;4420398;32;34753;-63
2023/03/29 07:13:11;;;;;;;6.72;1.58;;;;;;;10.62;31.17;100424.31;4417661;32;33162;-60
2023/03/29 07:15:40;;;;;;;1.77;1.37;;;;;;;10.65;31.48;100428.62;4417227;32;33791;-64
2023/03/29 07:18:09;;;;;;;2.53;1.87;;;;;;;10.51;31.18;100428.66;4416102;32;35198;-60
2023/03/29 07:20:37;;;;;;;4.87;1.75;;;;;;;10.10;31.57;100427.56;4415255;32;33365;-62
2023/03/29 07:23:06;;;;;;;1.45;1.35;;;;;;;10.58;29.79;100438.00;4417684;32;35011;-63
2023/03/29 07:25:35;;;;;;;1.65;1.20;;;;;;;10.60;30.18;100434.28;4416074;32;35250;-62
2023/03/29 07:28:03;;;;;;;0.55;0.55;;;;;;;10.80;29.40;100438.34;4416388;32;32856;-63
2023/03/29 07:30:31;;;;;;;2.08;1.25;;;;;;;10.84;29.30;100445.22;4411343;32;33452;-60
2023/03/29 07:33:04;;;;;;;1.08;0.98;;;;;;;10.97;28.88;100437.25;4415605;32;33698;-63
2023/03/29 07:35:32;;;;;;;2.17;1.37;;;;;;;10.47;31.02;100439.53;4412951;32;33778;-60
2023/03/29 07:38:00;;;;;;;1.75;1.60;;;;;;;10.64;29.08;100442.97;4414489;32;32279;-61
2023/03/29 07:40:28;;;;;;;2.55;1.20;;;;;;;10.66;28.54;100433.03;4419758;32;34321;-60
2023/03/29 07:43:09;;;;;;;2.42;1.42;;;;;;;10.44;28.50;100437.06;4416550;32;33096;-60
2023/03/29 07:45:41;;;;;;;0.68;0.68;;;;;;;10.49;28.48;100434.09;4422698;32;33487;-62
2023/03/29 07:48:09;;;;;;;2.92;1.05;;;;;;;10.75;26.77;100437.75;4420596;32;32995;-65
2023/03/29 07:50:37;;;;;;;1.35;1.05;;;;;;;11.23;26.32;100440.03;4420447;32;32207;-60
2023/03/29 07:53:06;;;;;;;0.50;0.50;;;;;;;11.45;26.31;100444.81;4420993;32;35045;-61
2023/03/29 07:55:34;;;;;;;1.33;0.77;;;;;;;10.76;25.24;100442.19;4422344;32;34249;-62
2023/03/29 07:58:03;;;;;;;0.90;0.82;;;;;;;9.97;26.77;100443.50;4422403;32;33742;-61
2023/03/29 08:00:32;;;;;;;6.22;1.05;;;;;;;11.08;25.48;100441.91;4420286;32;32387;-60
2023/03/29 08:03:02;;;;;;;0.73;0.73;;;;;;;11.41;25.46;100436.13;4421665;32;34999;-61
2023/03/29 08:05:31;;;;;;;1.60;1.27;;;;;;;11.30;27.62;100435.97;4419703;32;34177;-64
2023/03/29 08:08:08;;;;;;;1.42;1.10;;;;;;;11.77;23.70;100438.09;4421606;32;34083;-60
2023/03/29 08:10:38;;;;;;;3.97;0.98;;;;;;;11.98;23.93;100430.44;4421888;32;33317;-61
2023/03/29 08:13:08;;;;;;;1.35;1.25;;;;;;;12.22;25.57;100435.03;4420415;32;35169;-63
2023/03/29 08:15:38;;;;;;;1.33;0.85;;;;;;;12.34;26.26;100426.97;4422110;32;35355;-61
2023/03/29 08:18:07;;;;;;;3.85;1.15;;;;;;;12.95;23.60;100437.78;4421671;32;34053;-61
2023/03/29 08:20:35;;;;;;;1.65;0.68;;;;;;;12.41;25.28;100435.44;4422056;32;33502;-62
2023/03/29 08:23:03;;;;;;;0.98;0.50;;;;;;;13.16;22.97;100430.00;4418574;32;33887;-64
2023/03/29 08:25:31;;;;;;;0.90;0.80;;;;;;;13.16;23.28;100427.31;4421427;32;33751;-65
2023/03/29 08:27:59;;;;;;;2.47;1.08;;;;;;;12.66;24.84;100429.19;4419601;32;34082;-61
2023/03/29 08:30:27;;;;;;;0.75;0.70;;;;;;;12.98;23.70;100426.81;4420642;32;33379;-61
2023/03/29 08:32:55;;;;;;;1.92;1.25;;;;;;;12.65;24.71;100423.91;4419669;32;33707;-60
2023/03/29 08:35:23;;;;;;;1.20;1.10;;;;;;;12.58;24.75;100429.75;4421398;32;35207;-64
2023/03/29 08:37:51;;;;;;;0.70;0.70;;;;;;;12.64;25.03;100431.09;4420667;32;34172;-60
2023/03/29 08:40:21;;;;;;;0.90;0.80;;;;;;;12.43;25.86;100420.09;4421700;32;34576;-61
2023/03/29 08:43:13;;;;;;;2.05;1.40;;;;;;;12.14;25.88;100419.50;4420346;32;34645;-60
2023/03/29 08:45:50;;;;;;;1.55;0.85;;;;;;;11.69;25.79;100416.34;4421834;32;34869;-64
2023/03/29 08:48:28;;;;;;;1.45;0.90;;;;;;;11.72;26.69;100420.59;4421037;32;34453;-62
2023/03/29 08:51:16;;;;;;;1.87;1.05;;;;;;;11.83;27.92;100416.22;4419847;32;33774;-61
2023/03/29 08:53:59;;;;;;;1.45;1.15;;;;;;;12.62;25.80;100411.59;4404006;32;35053;-60
2023/03/29 08:56:29;;;;;;;0.62;0.62;;;;;;;12.47;26.14;100413.53;4403645;32;32610;-60
2023/03/29 08:59:02;;;;;;;1.80;1.20;;;;;;;12.25;26.63;100400.78;4405748;32;36019;-61
2023/03/29 09:01:37;;;;;;;1.55;1.15;;;;;;;12.77;25.79;100410.44;4403190;32;33315;-61
2023/03/29 09:04:15;;;;;;;2.53;1.62;;;;;;;12.53;25.29;100405.03;4400393;32;33971;-61
2023/03/29 09:06:44;;;;;;;1.40;1.23;;;;;;;12.52;25.56;100400.66;4411730;32;35126;-61
2023/03/29 09:09:14;;;;;;;1.77;1.05;;;;;;;13.00;24.92;100397.13;4405228;32;33877;-61
2023/03/29 09:12:01;;;;;;;1.85;1.02;;;;;;;12.60;25.58;100402.78;4402194;32;33427;-63
2023/03/29 09:14:51;;;;;;;0.65;0.60;;;;;;;13.33;24.72;100401.84;4402306;32;33800;-62
2023/03/29 09:17:45;;;;;;;5.43;1.35;;;;;;;13.78;24.80;100388.53;4401124;32;35174;-62
2023/03/29 09:20:32;;;;;;;3.35;1.27;;;;;;;13.55;23.02;100384.94;4399155;32;34055;-61
2023/03/29 09:23:21;;;;;;;1.58;0.95;;;;;;;13.77;23.42;100388.63;4399634;32;33531;-61
2023/03/29 09:26:01;;;;;;;9.70;1.83;;;;;;;13.89;22.41;100374.22;4401283;32;34594;-62
2023/03/29 09:28:37;;;;;;;2.60;1.15;;;;;;;13.81;22.83;100371.31;4406765;32;32643;-65
2023/03/29 09:31:09;;;;;;;3.10;1.50;;;;;;;13.52;23.25;100377.97;4401842;32;34273;-62
2023/03/29 09:33:43;;;;;;;1.48;1.10;;;;;;;13.07;23.88;100373.38;4401406;32;33579;-67
2023/03/29 09:36:23;;;;;;;1.55;0.77;;;;;;;13.45;23.19;100376.72;4405446;32;34500;-62
2023/03/29 09:38:53;;;;;;;0.80;0.60;;;;;;;13.88;23.02;100369.84;4391328;32;34021;-65
2023/03/29 09:41:42;;;;;;;7.12;1.42;;;;;;;14.54;23.48;100367.28;4402941;32;32814;-62
2023/03/29 09:44:14;;;;;;;2.10;1.15;;;;;;;14.54;23.11;100375.34;4405248;32;33587;-63
2023/03/29 09:46:52;;;;;;;1.27;0.85;;;;;;;14.51;22.00;100370.22;4400568;32;34724;-62
2023/03/29 09:49:26;;;;;;;2.10;1.00;;;;;;;14.49;22.50;100362.25;4402038;32;34283;-62
2023/03/29 09:51:57;;;;;;;1.40;1.10;;;;;;;14.43;21.80;100360.91;4399937;32;33995;-61
2023/03/29 09:54:24;;;;;;;1.90;1.02;;;;;;;14.63;22.29;100351.22;4407520;32;32184;-62
2023/03/29 09:56:53;;;;;;;1.25;0.65;;;;;;;14.81;22.79;100359.63;4407855;32;33463;-62
2023/03/29 09:59:21;;;;;;;1.80;1.25;;;;;;;14.82;23.77;100357.78;4418929;32;35239;-62
2023/03/29 10:01:49;;;;;;;1.85;1.05;;;;;;;14.97;22.83;100355.66;4421679;32;33023;-62
2023/03/29 10:04:16;;;;;;;1.33;0.88;;;;;;;15.11;22.31;100356.19;4417127;32;33713;-64
2023/03/29 10:06:49;;;;;;;2.70;1.65;;;;;;;14.59;24.08;100338.97;4420466;32;33606;-61
2023/03/29 10:09:22;;;;;;;3.65;2.15;;;;;;;14.98;23.35;100339.34;4403015;32;35257;-64
2023/03/29 10:11:52;;;;;;;2.72;1.92;;;;;;;15.38;22.87;100328.75;4416230;32;34439;-61
2023/03/29 10:14:35;;;;;;;4.82;1.77;;;;;;;15.98;22.73;100326.28;4406380;32;33233;-62
2023/03/29 10:17:05;;;;;;;1.98;1.05;;;;;;;15.60;22.49;100325.06;4408366;32;33696;-61
2023/03/29 10:19:34;;;;;;;2.85;1.55;;;;;;;16.33;21.97;100326.84;4404377;32;34541;-63
2023/03/29 10:22:22;;;;;;;4.60;2.35;;;;;;;15.28;23.13;100319.75;4413502;32;33886;-61
2023/03/29 10:24:51;;;;;;;4.15;1.75;;;;;;;16.24;22.00;100333.91;4416929;32;33719;-62
2023/03/29 10:27:30;;;;;;;2.08;1.60;;;;;;;15.72;23.60;100327.72;4420614;32;34784;-62
2023/03/29 10:29:59;;;;;;;1.62;1.33;;;;;;;15.88;22.76;100325.37;4403775;32;34134;-63
2023/03/29 10:32:32;;;;;;;4.22;1.40;;;;;;;15.22;23.39;100322.97;4408049;32;34867;-61
2023/03/29 10:35:12;;;;;;;3.30;2.03;;;;;;;15.77;23.04;100314.69;4402136;32;34409;-63
2023/03/29 10:37:44;;;;;;;5.62;2.08;;;;;;;15.74;22.25;100312.25;4404548;32;33596;-62
2023/03/29 10:40:23;;;;;;;2.45;1.40;;;;;;;15.54;21.84;100311.25;4396321;32;34755;-63
2023/03/29 10:42:52;;;;;;;2.87;1.48;;;;;;;15.30;23.38;100306.13;4404484;32;32833;-62
2023/03/29 10:45:25;;;;;;;4.03;2.78;;;;;;;15.84;22.79;100302.34;4412199;32;34933;-62
2023/03/29 10:47:55;;;;;;;3.47;1.75;;;;;;;15.18;23.20;100299.91;4400491;32;35121;-61
2023/03/29 10:50:25;;;;;;;2.80;1.37;;;;;;;15.82;22.38;100296.22;4400426;32;33457;-65
2023/03/29 10:52:53;;;;;;;2.22;1.33;;;;;;;16.00;21.85;100296.44;4415227;32;33851;-61
2023/03/29 10:55:20;;;;;;;3.47;1.60;;;;;;;15.92;22.97;100297.16;4417232;32;34374;-64
2023/03/29 10:57:55;;;;;;;2.95;1.62;;;;;;;16.12;23.85;100297.22;4404512;32;34724;-61
2023/03/29 11:00:32;;;;;;;5.68;2.15;;;;;;;16.70;22.74;100302.75;4397854;32;33956;-63
2023/03/29 11:03:22;;;;;;;3.75;1.55;;;;;;;17.03;21.93;100292.53;4403367;32;34116;-62
2023/03/29 11:05:57;;;;;;;2.55;1.12;;;;;;;16.95;22.25;100294.13;4395284;32;33422;-62
2023/03/29 11:08:42;;;;;;;4.07;2.15;;;;;;;17.16;21.74;100283.12;4398116;32;35314;-64
2023/03/29 11:11:12;;;;;;;4.87;1.75;;;;;;;15.77;21.47;100293.09;4393305;32;47543;-61
2023/03/29 11:13:46;;;;;;;4.12;2.62;;;;;;;15.83;21.87;100279.91;4397321;32;33997;-65
2023/03/29 11:16:22;;;;;;;2.92;1.90;;;;;;;15.82;23.00;100271.94;4418934;32;49733;-62
2023/03/29 11:19:20;;;;;;;6.05;1.83;;;;;;;14.97;23.14;100281.03;4421544;32;33964;-61
2023/03/29 11:22:03;;;;;;;1.87;1.23;;;;;;;15.47;22.84;100274.97;4422984;32;33832;-61
2023/03/29 11:24:37;;;;;;;2.17;1.35;;;;;;;12.79;26.37;100281.41;4421938;32;34105;-63
2023/03/29 11:27:35;;;;;;;2.85;1.58;;;;;;;12.57;26.99;100276.78;4417009;32;32389;-61
2023/03/29 11:30:12;;;;;;;2.35;1.37;;;;;;;13.55;26.78;100271.09;4413402;32;34996;-62
2023/03/29 11:32:47;;;;;;;2.95;1.95;;;;;;;13.43;25.70;100268.41;4417645;32;34667;-63
2023/03/29 11:35:27;;;;;;;3.47;2.25;;;;;;;13.32;25.92;100254.09;4417536;32;34298;-62
2023/03/29 11:38:01;;;;;;;2.95;1.70;;;;;;;14.23;25.64;100261.19;4418213;32;33735;-61
2023/03/29 11:40:56;;;;;;;3.22;1.30;;;;;;;14.10;25.88;100264.03;4420871;32;34941;-61
2023/03/29 11:43:29;;;;;;;1.93;1.37;;;;;;;14.30;26.11;100262.41;4422996;32;34004;-64
2023/03/29 11:46:20;;;;;;;2.20;1.05;;;;;;;14.24;25.54;100263.75;4425154;32;34135;-61
2023/03/29 11:48:53;;;;;;;2.75;1.60;;;;;;;13.88;26.26;100256.81;4417546;32;212272;-61
2023/03/29 11:51:59;;;;;;;1.87;1.12;;;;;;;14.21;26.26;100256.75;4423868;32;32659;-61
2023/03/29 11:54:33;;;;;;;3.95;2.35;;;;;;;14.33;26.19;100246.84;4414639;32;34299;-62
2023/03/29 11:57:13;;;;;;;3.12;1.75;;;;;;;14.17;25.54;100241.84;4419157;32;33225;-61